sensor_id;sensor_type;location;lat;lon;timestamp;P1;durP1;ratioP1;P2;durP2;ratioP2
4047;SDS011;2038;51.728;6.674;2022-07-29T00:01:36;5.63;;;1.83;;
4047;SDS011;2038;51.728;6.674;2022-07-29T00:04:02;3.23;;;2.30;;
4047;SDS011;2038;51.728;6.674;2022-07-29T00:06:29;5.13;;;2.00;;
4047;SDS011;2038;51.728;6.674;2022-07-29T00:08:55;4.90;;;1.87;;
4047;SDS011;2038;51.728;6.674;2022-07-29T00:11:21;3.30;;;1.63;;
4047;SDS011;2038;51.728;6.674;2022-07-29T00:13:47;4.97;;;2.00;;
4047;SDS011;2038;51.728;6.674;2022-07-29T00:16:14;6.90;;;2.20;;
4047;SDS011;2038;51.728;6.674;2022-07-29T00:18:40;2.60;;;1.77;;
4047;SDS011;2038;51.728;6.674;2022-07-29T00:21:06;3.57;;;2.00;;
4047;SDS011;2038;51.728;6.674;2022-07-29T00:23:32;4.00;;;1.97;;
4047;SDS011;2038;51.728;6.674;2022-07-29T00:25:59;6.00;;;1.90;;
4047;SDS011;2038;51.728;6.674;2022-07-29T00:28:25;5.43;;;1.97;;
4047;SDS011;2038;51.728;6.674;2022-07-29T00:30:51;3.17;;;1.80;;
4047;SDS011;2038;51.728;6.674;2022-07-29T00:33:17;5.77;;;1.60;;
4047;SDS011;2038;51.728;6.674;2022-07-29T00:35:44;5.77;;;2.63;;
4047;SDS011;2038;51.728;6.674;2022-07-29T00:38:13;4.63;;;1.83;;
4047;SDS011;2038;51.728;6.674;2022-07-29T00:40:43;3.90;;;1.50;;
4047;SDS011;2038;51.728;6.674;2022-07-29T00:43:11;2.47;;;1.27;;
4047;SDS011;2038;51.728;6.674;2022-07-29T00:45:39;6.60;;;2.00;;
4047;SDS011;2038;51.728;6.674;2022-07-29T00:48:06;4.20;;;1.50;;
4047;SDS011;2038;51.728;6.674;2022-07-29T00:50:34;3.13;;;2.20;;
4047;SDS011;2038;51.728;6.674;2022-07-29T00:53:02;5.27;;;1.70;;
4047;SDS011;2038;51.728;6.674;2022-07-29T00:55:32;4.50;;;1.90;;
4047;SDS011;2038;51.728;6.674;2022-07-29T00:57:59;2.60;;;1.53;;
4047;SDS011;2038;51.728;6.674;2022-07-29T01:00:27;6.03;;;1.60;;
4047;SDS011;2038;51.728;6.674;2022-07-29T01:02:55;3.43;;;2.20;;
4047;SDS011;2038;51.728;6.674;2022-07-29T01:05:21;4.10;;;1.77;;
4047;SDS011;2038;51.728;6.674;2022-07-29T01:07:53;7.40;;;2.20;;
4047;SDS011;2038;51.728;6.674;2022-07-29T01:10:20;2.47;;;2.13;;
4047;SDS011;2038;51.728;6.674;2022-07-29T01:12:49;3.63;;;1.43;;
4047;SDS011;2038;51.728;6.674;2022-07-29T01:15:19;7.20;;;1.80;;
4047;SDS011;2038;51.728;6.674;2022-07-29T01:17:52;5.60;;;2.03;;
4047;SDS011;2038;51.728;6.674;2022-07-29T01:24:14;4.30;;;1.50;;
4047;SDS011;2038;51.728;6.674;2022-07-29T01:30:20;5.97;;;1.70;;
4047;SDS011;2038;51.728;6.674;2022-07-29T01:32:53;7.17;;;1.83;;
4047;SDS011;2038;51.728;6.674;2022-07-29T01:35:28;4.10;;;1.83;;
4047;SDS011;2038;51.728;6.674;2022-07-29T01:38:10;1.50;;;1.40;;
4047;SDS011;2038;51.728;6.674;2022-07-29T01:40:54;3.37;;;1.53;;
4047;SDS011;2038;51.728;6.674;2022-07-29T01:43:39;3.80;;;1.53;;
4047;SDS011;2038;51.728;6.674;2022-07-29T01:46:27;2.87;;;1.50;;
4047;SDS011;2038;51.728;6.674;2022-07-29T01:49:08;3.37;;;1.57;;
4047;SDS011;2038;51.728;6.674;2022-07-29T01:51:48;3.50;;;1.70;;
4047;SDS011;2038;51.728;6.674;2022-07-29T01:57:27;2.83;;;1.40;;
4047;SDS011;2038;51.728;6.674;2022-07-29T02:00:00;2.67;;;1.20;;
4047;SDS011;2038;51.728;6.674;2022-07-29T02:02:30;2.37;;;1.63;;
4047;SDS011;2038;51.728;6.674;2022-07-29T02:05:00;2.73;;;1.83;;
4047;SDS011;2038;51.728;6.674;2022-07-29T02:07:33;6.43;;;1.77;;
4047;SDS011;2038;51.728;6.674;2022-07-29T02:10:02;2.97;;;1.50;;
4047;SDS011;2038;51.728;6.674;2022-07-29T02:12:32;2.87;;;1.50;;
4047;SDS011;2038;51.728;6.674;2022-07-29T02:15:03;4.97;;;1.83;;
4047;SDS011;2038;51.728;6.674;2022-07-29T02:17:33;4.53;;;1.87;;
4047;SDS011;2038;51.728;6.674;2022-07-29T02:20:07;2.30;;;1.43;;
4047;SDS011;2038;51.728;6.674;2022-07-29T02:22:35;3.33;;;2.00;;
4047;SDS011;2038;51.728;6.674;2022-07-29T02:25:05;2.33;;;1.80;;
4047;SDS011;2038;51.728;6.674;2022-07-29T02:27:34;3.67;;;1.80;;
4047;SDS011;2038;51.728;6.674;2022-07-29T02:30:03;4.67;;;2.10;;
4047;SDS011;2038;51.728;6.674;2022-07-29T02:32:32;1.50;;;1.30;;
4047;SDS011;2038;51.728;6.674;2022-07-29T02:35:04;3.80;;;1.50;;
4047;SDS011;2038;51.728;6.674;2022-07-29T02:37:33;2.60;;;1.90;;
4047;SDS011;2038;51.728;6.674;2022-07-29T02:40:01;2.80;;;2.27;;
4047;SDS011;2038;51.728;6.674;2022-07-29T02:42:31;10.60;;;2.57;;
4047;SDS011;2038;51.728;6.674;2022-07-29T02:45:00;4.13;;;1.97;;
4047;SDS011;2038;51.728;6.674;2022-07-29T02:47:29;3.83;;;2.43;;
4047;SDS011;2038;51.728;6.674;2022-07-29T02:52:58;4.03;;;2.30;;
4047;SDS011;2038;51.728;6.674;2022-07-29T02:55:46;4.20;;;2.50;;
4047;SDS011;2038;51.728;6.674;2022-07-29T02:58:21;5.00;;;2.10;;
4047;SDS011;2038;51.728;6.674;2022-07-29T03:01:04;5.50;;;2.03;;
4047;SDS011;2038;51.728;6.674;2022-07-29T03:03:39;3.10;;;1.90;;
4047;SDS011;2038;51.728;6.674;2022-07-29T03:06:09;3.07;;;2.10;;
4047;SDS011;2038;51.728;6.674;2022-07-29T03:08:42;2.47;;;2.27;;
4047;SDS011;2038;51.728;6.674;2022-07-29T03:11:10;5.63;;;2.23;;
4047;SDS011;2038;51.728;6.674;2022-07-29T03:13:38;3.93;;;2.40;;
4047;SDS011;2038;51.728;6.674;2022-07-29T03:16:06;2.37;;;1.60;;
4047;SDS011;2038;51.728;6.674;2022-07-29T03:18:35;5.73;;;1.90;;
4047;SDS011;2038;51.728;6.674;2022-07-29T03:21:02;3.57;;;2.07;;
4047;SDS011;2038;51.728;6.674;2022-07-29T03:23:29;3.50;;;2.23;;
4047;SDS011;2038;51.728;6.674;2022-07-29T03:25:55;6.70;;;2.40;;
4047;SDS011;2038;51.728;6.674;2022-07-29T03:28:22;8.70;;;2.60;;
4047;SDS011;2038;51.728;6.674;2022-07-29T03:30:49;6.60;;;2.30;;
4047;SDS011;2038;51.728;6.674;2022-07-29T03:33:15;3.23;;;2.27;;
4047;SDS011;2038;51.728;6.674;2022-07-29T03:35:42;2.47;;;2.10;;
4047;SDS011;2038;51.728;6.674;2022-07-29T03:38:08;4.00;;;2.43;;
4047;SDS011;2038;51.728;6.674;2022-07-29T03:40:38;3.03;;;2.17;;
4047;SDS011;2038;51.728;6.674;2022-07-29T03:43:23;4.93;;;2.67;;
4047;SDS011;2038;51.728;6.674;2022-07-29T03:45:57;2.77;;;2.00;;
4047;SDS011;2038;51.728;6.674;2022-07-29T03:48:28;4.20;;;2.60;;
4047;SDS011;2038;51.728;6.674;2022-07-29T03:51:00;5.40;;;2.70;;
4047;SDS011;2038;51.728;6.674;2022-07-29T03:53:26;4.33;;;2.30;;
4047;SDS011;2038;51.728;6.674;2022-07-29T03:55:54;5.47;;;2.70;;
4047;SDS011;2038;51.728;6.674;2022-07-29T03:58:25;3.70;;;2.47;;
4047;SDS011;2038;51.728;6.674;2022-07-29T04:00:54;3.77;;;2.90;;
4047;SDS011;2038;51.728;6.674;2022-07-29T04:03:22;4.40;;;2.87;;
4047;SDS011;2038;51.728;6.674;2022-07-29T04:06:04;5.33;;;2.90;;
4047;SDS011;2038;51.728;6.674;2022-07-29T04:08:33;2.30;;;2.10;;
4047;SDS011;2038;51.728;6.674;2022-07-29T04:11:00;4.40;;;2.53;;
4047;SDS011;2038;51.728;6.674;2022-07-29T04:13:27;12.70;;;2.93;;
4047;SDS011;2038;51.728;6.674;2022-07-29T04:15:54;4.73;;;2.67;;
4047;SDS011;2038;51.728;6.674;2022-07-29T04:18:20;5.87;;;3.17;;
4047;SDS011;2038;51.728;6.674;2022-07-29T04:20:47;4.70;;;2.90;;
4047;SDS011;2038;51.728;6.674;2022-07-29T04:23:13;4.03;;;2.77;;
4047;SDS011;2038;51.728;6.674;2022-07-29T04:25:40;4.87;;;3.13;;
4047;SDS011;2038;51.728;6.674;2022-07-29T04:28:08;10.53;;;3.40;;
4047;SDS011;2038;51.728;6.674;2022-07-29T04:30:35;3.00;;;2.70;;
4047;SDS011;2038;51.728;6.674;2022-07-29T04:33:03;5.80;;;3.03;;
4047;SDS011;2038;51.728;6.674;2022-07-29T04:35:33;3.60;;;2.53;;
4047;SDS011;2038;51.728;6.674;2022-07-29T04:38:02;3.67;;;2.90;;
4047;SDS011;2038;51.728;6.674;2022-07-29T04:40:30;10.63;;;2.80;;
4047;SDS011;2038;51.728;6.674;2022-07-29T04:42:58;4.60;;;3.30;;
4047;SDS011;2038;51.728;6.674;2022-07-29T04:45:27;5.40;;;2.90;;
4047;SDS011;2038;51.728;6.674;2022-07-29T04:47:54;3.97;;;2.63;;
4047;SDS011;2038;51.728;6.674;2022-07-29T04:50:21;4.07;;;2.60;;
4047;SDS011;2038;51.728;6.674;2022-07-29T04:52:47;4.70;;;2.90;;
4047;SDS011;2038;51.728;6.674;2022-07-29T04:55:14;5.23;;;2.30;;
4047;SDS011;2038;51.728;6.674;2022-07-29T04:57:40;3.40;;;2.67;;
4047;SDS011;2038;51.728;6.674;2022-07-29T05:00:07;3.00;;;2.70;;
4047;SDS011;2038;51.728;6.674;2022-07-29T05:02:34;4.97;;;2.70;;
4047;SDS011;2038;51.728;6.674;2022-07-29T05:05:00;5.07;;;3.30;;
4047;SDS011;2038;51.728;6.674;2022-07-29T05:07:26;6.40;;;2.97;;
4047;SDS011;2038;51.728;6.674;2022-07-29T05:09:53;7.03;;;2.87;;
4047;SDS011;2038;51.728;6.674;2022-07-29T05:12:21;5.40;;;3.17;;
4047;SDS011;2038;51.728;6.674;2022-07-29T05:14:49;3.73;;;3.27;;
4047;SDS011;2038;51.728;6.674;2022-07-29T05:17:15;6.30;;;2.53;;
4047;SDS011;2038;51.728;6.674;2022-07-29T05:19:41;7.23;;;2.90;;
4047;SDS011;2038;51.728;6.674;2022-07-29T05:22:07;5.57;;;2.80;;
4047;SDS011;2038;51.728;6.674;2022-07-29T05:24:34;8.37;;;3.53;;
4047;SDS011;2038;51.728;6.674;2022-07-29T05:27:00;5.23;;;3.67;;
4047;SDS011;2038;51.728;6.674;2022-07-29T05:29:26;5.13;;;4.00;;
4047;SDS011;2038;51.728;6.674;2022-07-29T05:31:52;9.30;;;3.50;;
4047;SDS011;2038;51.728;6.674;2022-07-29T05:34:19;4.20;;;3.20;;
4047;SDS011;2038;51.728;6.674;2022-07-29T05:36:45;12.23;;;4.50;;
4047;SDS011;2038;51.728;6.674;2022-07-29T05:39:11;5.33;;;3.93;;
4047;SDS011;2038;51.728;6.674;2022-07-29T05:41:39;3.97;;;3.67;;
4047;SDS011;2038;51.728;6.674;2022-07-29T05:44:05;4.17;;;3.77;;
4047;SDS011;2038;51.728;6.674;2022-07-29T05:46:31;4.23;;;3.70;;
4047;SDS011;2038;51.728;6.674;2022-07-29T05:48:57;7.13;;;4.70;;
4047;SDS011;2038;51.728;6.674;2022-07-29T05:51:24;5.47;;;4.30;;
4047;SDS011;2038;51.728;6.674;2022-07-29T05:53:50;7.20;;;4.37;;
4047;SDS011;2038;51.728;6.674;2022-07-29T05:56:16;7.93;;;5.07;;
4047;SDS011;2038;51.728;6.674;2022-07-29T05:58:42;5.00;;;4.00;;
4047;SDS011;2038;51.728;6.674;2022-07-29T06:01:09;5.23;;;3.80;;
4047;SDS011;2038;51.728;6.674;2022-07-29T06:03:35;5.77;;;3.60;;
4047;SDS011;2038;51.728;6.674;2022-07-29T06:06:02;5.60;;;4.53;;
4047;SDS011;2038;51.728;6.674;2022-07-29T06:08:30;5.20;;;4.10;;
4047;SDS011;2038;51.728;6.674;2022-07-29T06:10:58;5.80;;;4.17;;
4047;SDS011;2038;51.728;6.674;2022-07-29T06:13:25;10.97;;;4.73;;
4047;SDS011;2038;51.728;6.674;2022-07-29T06:15:52;6.40;;;4.80;;
4047;SDS011;2038;51.728;6.674;2022-07-29T06:18:18;7.70;;;4.40;;
4047;SDS011;2038;51.728;6.674;2022-07-29T06:20:45;9.20;;;4.80;;
4047;SDS011;2038;51.728;6.674;2022-07-29T06:23:12;9.73;;;5.40;;
4047;SDS011;2038;51.728;6.674;2022-07-29T06:25:39;4.63;;;4.23;;
4047;SDS011;2038;51.728;6.674;2022-07-29T06:28:06;5.33;;;4.73;;
4047;SDS011;2038;51.728;6.674;2022-07-29T06:30:32;5.00;;;4.50;;
4047;SDS011;2038;51.728;6.674;2022-07-29T06:32:58;7.90;;;4.60;;
4047;SDS011;2038;51.728;6.674;2022-07-29T06:35:26;4.47;;;4.07;;
4047;SDS011;2038;51.728;6.674;2022-07-29T06:37:53;8.43;;;4.23;;
4047;SDS011;2038;51.728;6.674;2022-07-29T06:40:19;8.00;;;5.07;;
4047;SDS011;2038;51.728;6.674;2022-07-29T06:43:04;12.40;;;4.90;;
4047;SDS011;2038;51.728;6.674;2022-07-29T06:45:33;15.20;;;5.50;;
4047;SDS011;2038;51.728;6.674;2022-07-29T06:48:00;7.33;;;5.47;;
4047;SDS011;2038;51.728;6.674;2022-07-29T06:50:26;6.63;;;5.20;;
4047;SDS011;2038;51.728;6.674;2022-07-29T06:52:52;7.23;;;4.90;;
4047;SDS011;2038;51.728;6.674;2022-07-29T06:55:18;6.83;;;5.17;;
4047;SDS011;2038;51.728;6.674;2022-07-29T06:57:45;7.00;;;4.80;;
4047;SDS011;2038;51.728;6.674;2022-07-29T07:00:11;6.20;;;4.43;;
4047;SDS011;2038;51.728;6.674;2022-07-29T07:02:38;7.40;;;5.10;;
4047;SDS011;2038;51.728;6.674;2022-07-29T07:05:05;5.37;;;4.40;;
4047;SDS011;2038;51.728;6.674;2022-07-29T07:07:32;7.13;;;5.50;;
4047;SDS011;2038;51.728;6.674;2022-07-29T07:09:58;8.43;;;5.30;;
4047;SDS011;2038;51.728;6.674;2022-07-29T07:12:24;5.47;;;4.97;;
4047;SDS011;2038;51.728;6.674;2022-07-29T07:14:50;6.40;;;5.30;;
4047;SDS011;2038;51.728;6.674;2022-07-29T07:17:17;6.93;;;5.03;;
4047;SDS011;2038;51.728;6.674;2022-07-29T07:19:43;5.20;;;4.10;;
4047;SDS011;2038;51.728;6.674;2022-07-29T07:22:10;13.20;;;5.10;;
4047;SDS011;2038;51.728;6.674;2022-07-29T07:24:36;6.20;;;4.87;;
4047;SDS011;2038;51.728;6.674;2022-07-29T07:27:02;6.17;;;4.63;;
4047;SDS011;2038;51.728;6.674;2022-07-29T07:29:28;8.30;;;5.80;;
4047;SDS011;2038;51.728;6.674;2022-07-29T07:31:55;6.50;;;4.80;;
4047;SDS011;2038;51.728;6.674;2022-07-29T07:34:22;6.43;;;4.60;;
4047;SDS011;2038;51.728;6.674;2022-07-29T07:36:48;10.77;;;5.70;;
4047;SDS011;2038;51.728;6.674;2022-07-29T07:39:14;7.63;;;5.20;;
4047;SDS011;2038;51.728;6.674;2022-07-29T07:41:41;6.97;;;4.53;;
4047;SDS011;2038;51.728;6.674;2022-07-29T07:44:07;8.03;;;5.57;;
4047;SDS011;2038;51.728;6.674;2022-07-29T07:46:33;6.53;;;5.83;;
4047;SDS011;2038;51.728;6.674;2022-07-29T07:48:59;9.27;;;5.87;;
4047;SDS011;2038;51.728;6.674;2022-07-29T07:51:26;8.93;;;6.67;;
4047;SDS011;2038;51.728;6.674;2022-07-29T07:53:52;6.33;;;5.60;;
4047;SDS011;2038;51.728;6.674;2022-07-29T07:56:18;7.50;;;5.53;;
4047;SDS011;2038;51.728;6.674;2022-07-29T07:58:45;13.30;;;8.43;;
4047;SDS011;2038;51.728;6.674;2022-07-29T08:01:11;9.60;;;6.30;;
4047;SDS011;2038;51.728;6.674;2022-07-29T08:03:37;9.33;;;6.70;;
4047;SDS011;2038;51.728;6.674;2022-07-29T08:06:04;14.00;;;7.20;;
4047;SDS011;2038;51.728;6.674;2022-07-29T08:08:31;8.03;;;6.70;;
4047;SDS011;2038;51.728;6.674;2022-07-29T08:10:57;7.30;;;6.20;;
4047;SDS011;2038;51.728;6.674;2022-07-29T08:13:24;6.80;;;6.20;;
4047;SDS011;2038;51.728;6.674;2022-07-29T08:15:55;13.30;;;6.23;;
4047;SDS011;2038;51.728;6.674;2022-07-29T08:18:28;6.10;;;5.50;;
4047;SDS011;2038;51.728;6.674;2022-07-29T08:20:56;8.43;;;7.53;;
4047;SDS011;2038;51.728;6.674;2022-07-29T08:23:23;6.10;;;5.60;;
4047;SDS011;2038;51.728;6.674;2022-07-29T08:25:51;7.20;;;5.50;;
4047;SDS011;2038;51.728;6.674;2022-07-29T08:28:18;6.33;;;5.43;;
4047;SDS011;2038;51.728;6.674;2022-07-29T08:30:44;7.37;;;6.20;;
4047;SDS011;2038;51.728;6.674;2022-07-29T08:33:10;7.00;;;6.03;;
4047;SDS011;2038;51.728;6.674;2022-07-29T08:35:36;6.70;;;5.97;;
4047;SDS011;2038;51.728;6.674;2022-07-29T08:38:05;7.27;;;5.93;;
4047;SDS011;2038;51.728;6.674;2022-07-29T08:40:31;7.77;;;6.97;;
4047;SDS011;2038;51.728;6.674;2022-07-29T08:42:57;6.70;;;6.07;;
4047;SDS011;2038;51.728;6.674;2022-07-29T08:45:30;7.70;;;6.30;;
4047;SDS011;2038;51.728;6.674;2022-07-29T08:48:07;9.27;;;7.00;;
4047;SDS011;2038;51.728;6.674;2022-07-29T08:50:34;12.03;;;8.10;;
4047;SDS011;2038;51.728;6.674;2022-07-29T08:53:03;11.10;;;7.93;;
4047;SDS011;2038;51.728;6.674;2022-07-29T08:55:31;8.90;;;7.00;;
4047;SDS011;2038;51.728;6.674;2022-07-29T08:57:58;7.60;;;6.80;;
4047;SDS011;2038;51.728;6.674;2022-07-29T09:00:26;10.97;;;6.70;;
4047;SDS011;2038;51.728;6.674;2022-07-29T09:02:56;10.60;;;7.67;;
4047;SDS011;2038;51.728;6.674;2022-07-29T09:05:24;10.00;;;7.37;;
4047;SDS011;2038;51.728;6.674;2022-07-29T09:07:53;7.70;;;6.90;;
4047;SDS011;2038;51.728;6.674;2022-07-29T09:10:20;9.23;;;6.60;;
4047;SDS011;2038;51.728;6.674;2022-07-29T09:12:46;15.67;;;8.20;;
4047;SDS011;2038;51.728;6.674;2022-07-29T09:15:13;10.53;;;7.40;;
4047;SDS011;2038;51.728;6.674;2022-07-29T09:17:43;7.57;;;6.87;;
4047;SDS011;2038;51.728;6.674;2022-07-29T09:20:15;10.80;;;8.70;;
4047;SDS011;2038;51.728;6.674;2022-07-29T09:22:47;15.43;;;8.53;;
4047;SDS011;2038;51.728;6.674;2022-07-29T09:25:37;9.50;;;8.57;;
4047;SDS011;2038;51.728;6.674;2022-07-29T09:30:53;10.10;;;7.87;;
4047;SDS011;2038;51.728;6.674;2022-07-29T09:33:33;10.17;;;7.30;;
4047;SDS011;2038;51.728;6.674;2022-07-29T09:36:04;12.90;;;8.50;;
4047;SDS011;2038;51.728;6.674;2022-07-29T09:38:33;9.33;;;8.40;;
4047;SDS011;2038;51.728;6.674;2022-07-29T09:41:03;14.23;;;8.30;;
4047;SDS011;2038;51.728;6.674;2022-07-29T09:43:30;9.93;;;7.87;;
4047;SDS011;2038;51.728;6.674;2022-07-29T09:46:05;10.30;;;7.90;;
4047;SDS011;2038;51.728;6.674;2022-07-29T09:48:39;9.00;;;7.70;;
4047;SDS011;2038;51.728;6.674;2022-07-29T09:51:05;12.23;;;7.30;;
4047;SDS011;2038;51.728;6.674;2022-07-29T09:53:44;7.70;;;6.90;;
4047;SDS011;2038;51.728;6.674;2022-07-29T09:56:10;8.30;;;7.27;;
4047;SDS011;2038;51.728;6.674;2022-07-29T09:58:36;7.87;;;6.90;;
4047;SDS011;2038;51.728;6.674;2022-07-29T10:01:02;10.20;;;8.17;;
4047;SDS011;2038;51.728;6.674;2022-07-29T10:03:29;9.23;;;6.87;;
4047;SDS011;2038;51.728;6.674;2022-07-29T10:06:04;8.70;;;6.30;;
4047;SDS011;2038;51.728;6.674;2022-07-29T10:08:36;8.87;;;6.80;;
4047;SDS011;2038;51.728;6.674;2022-07-29T10:11:12;17.50;;;9.70;;
4047;SDS011;2038;51.728;6.674;2022-07-29T10:13:43;9.57;;;8.40;;
4047;SDS011;2038;51.728;6.674;2022-07-29T10:16:13;8.43;;;7.53;;
4047;SDS011;2038;51.728;6.674;2022-07-29T10:18:41;10.23;;;8.97;;
4047;SDS011;2038;51.728;6.674;2022-07-29T10:21:09;8.53;;;7.03;;
4047;SDS011;2038;51.728;6.674;2022-07-29T10:23:36;12.90;;;7.60;;
4047;SDS011;2038;51.728;6.674;2022-07-29T10:26:03;9.10;;;6.87;;
4047;SDS011;2038;51.728;6.674;2022-07-29T10:28:31;10.27;;;8.90;;
4047;SDS011;2038;51.728;6.674;2022-07-29T10:30:59;13.93;;;12.40;;
4047;SDS011;2038;51.728;6.674;2022-07-29T10:33:47;10.33;;;9.27;;
4047;SDS011;2038;51.728;6.674;2022-07-29T10:36:41;7.73;;;6.93;;
4047;SDS011;2038;51.728;6.674;2022-07-29T10:42:52;13.10;;;8.23;;
4047;SDS011;2038;51.728;6.674;2022-07-29T10:45:25;9.30;;;7.73;;
4047;SDS011;2038;51.728;6.674;2022-07-29T10:48:04;11.53;;;9.47;;
4047;SDS011;2038;51.728;6.674;2022-07-29T10:51:13;8.60;;;7.60;;
4047;SDS011;2038;51.728;6.674;2022-07-29T10:53:48;11.83;;;9.13;;
4047;SDS011;2038;51.728;6.674;2022-07-29T10:56:27;10.73;;;8.50;;
4047;SDS011;2038;51.728;6.674;2022-07-29T11:01:47;11.03;;;8.50;;
4047;SDS011;2038;51.728;6.674;2022-07-29T11:07:10;10.90;;;7.60;;
4047;SDS011;2038;51.728;6.674;2022-07-29T11:09:37;10.80;;;7.40;;
4047;SDS011;2038;51.728;6.674;2022-07-29T11:12:07;11.70;;;8.73;;
4047;SDS011;2038;51.728;6.674;2022-07-29T11:15:12;10.70;;;7.17;;
4047;SDS011;2038;51.728;6.674;2022-07-29T11:20:34;7.30;;;6.40;;
4047;SDS011;2038;51.728;6.674;2022-07-29T11:23:19;8.53;;;7.27;;
4047;SDS011;2038;51.728;6.674;2022-07-29T11:31:49;7.87;;;6.00;;
4047;SDS011;2038;51.728;6.674;2022-07-29T11:34:30;11.00;;;6.80;;
4047;SDS011;2038;51.728;6.674;2022-07-29T11:39:41;9.83;;;8.00;;
4047;SDS011;2038;51.728;6.674;2022-07-29T11:44:58;13.43;;;7.90;;
4047;SDS011;2038;51.728;6.674;2022-07-29T11:47:38;12.73;;;8.97;;
4047;SDS011;2038;51.728;6.674;2022-07-29T11:50:28;8.40;;;7.60;;
4047;SDS011;2038;51.728;6.674;2022-07-29T11:53:02;12.93;;;8.80;;
4047;SDS011;2038;51.728;6.674;2022-07-29T11:55:37;10.37;;;6.10;;
4047;SDS011;2038;51.728;6.674;2022-07-29T11:58:05;14.20;;;8.63;;
4047;SDS011;2038;51.728;6.674;2022-07-29T12:03:03;10.23;;;8.10;;
4047;SDS011;2038;51.728;6.674;2022-07-29T12:08:07;9.80;;;7.50;;
4047;SDS011;2038;51.728;6.674;2022-07-29T12:10:46;8.00;;;7.20;;
4047;SDS011;2038;51.728;6.674;2022-07-29T12:13:17;11.40;;;7.47;;
4047;SDS011;2038;51.728;6.674;2022-07-29T12:15:55;12.30;;;7.77;;
4047;SDS011;2038;51.728;6.674;2022-07-29T12:18:23;10.37;;;7.37;;
4047;SDS011;2038;51.728;6.674;2022-07-29T12:20:56;8.97;;;7.00;;
4047;SDS011;2038;51.728;6.674;2022-07-29T12:23:24;7.70;;;6.80;;
4047;SDS011;2038;51.728;6.674;2022-07-29T12:25:51;8.50;;;6.70;;
4047;SDS011;2038;51.728;6.674;2022-07-29T12:28:17;7.80;;;7.00;;
4047;SDS011;2038;51.728;6.674;2022-07-29T12:30:45;8.53;;;6.50;;
4047;SDS011;2038;51.728;6.674;2022-07-29T12:33:18;7.07;;;6.07;;
4047;SDS011;2038;51.728;6.674;2022-07-29T12:35:50;8.33;;;6.30;;
4047;SDS011;2038;51.728;6.674;2022-07-29T12:38:21;7.67;;;4.83;;
4047;SDS011;2038;51.728;6.674;2022-07-29T12:40:48;6.90;;;4.50;;
4047;SDS011;2038;51.728;6.674;2022-07-29T12:43:17;5.57;;;3.60;;
4047;SDS011;2038;51.728;6.674;2022-07-29T12:45:47;7.50;;;4.80;;
4047;SDS011;2038;51.728;6.674;2022-07-29T12:48:17;6.33;;;5.20;;
4047;SDS011;2038;51.728;6.674;2022-07-29T12:51:05;8.13;;;4.60;;
4047;SDS011;2038;51.728;6.674;2022-07-29T12:53:34;9.60;;;4.83;;
4047;SDS011;2038;51.728;6.674;2022-07-29T12:56:02;4.97;;;3.83;;
4047;SDS011;2038;51.728;6.674;2022-07-29T12:58:31;4.50;;;4.10;;
4047;SDS011;2038;51.728;6.674;2022-07-29T13:01:09;8.73;;;4.37;;
4047;SDS011;2038;51.728;6.674;2022-07-29T13:03:52;5.43;;;4.67;;
4047;SDS011;2038;51.728;6.674;2022-07-29T13:09:13;9.73;;;5.60;;
4047;SDS011;2038;51.728;6.674;2022-07-29T13:11:51;7.63;;;4.23;;
4047;SDS011;2038;51.728;6.674;2022-07-29T13:14:31;6.70;;;5.80;;
4047;SDS011;2038;51.728;6.674;2022-07-29T13:17:11;6.83;;;5.20;;
4047;SDS011;2038;51.728;6.674;2022-07-29T13:19:48;9.13;;;5.93;;
4047;SDS011;2038;51.728;6.674;2022-07-29T13:22:37;9.90;;;5.60;;
4047;SDS011;2038;51.728;6.674;2022-07-29T13:25:05;10.37;;;5.87;;
4047;SDS011;2038;51.728;6.674;2022-07-29T13:27:33;8.03;;;6.57;;
4047;SDS011;2038;51.728;6.674;2022-07-29T13:30:02;10.23;;;5.10;;
4047;SDS011;2038;51.728;6.674;2022-07-29T13:32:32;5.23;;;4.73;;
4047;SDS011;2038;51.728;6.674;2022-07-29T13:35:00;8.77;;;6.27;;
4047;SDS011;2038;51.728;6.674;2022-07-29T13:37:31;9.17;;;6.80;;
4047;SDS011;2038;51.728;6.674;2022-07-29T13:39:59;10.00;;;6.73;;
4047;SDS011;2038;51.728;6.674;2022-07-29T13:42:28;8.10;;;6.30;;
4047;SDS011;2038;51.728;6.674;2022-07-29T13:44:54;7.70;;;6.13;;
4047;SDS011;2038;51.728;6.674;2022-07-29T13:47:21;8.47;;;6.80;;
4047;SDS011;2038;51.728;6.674;2022-07-29T13:49:48;8.87;;;5.47;;
4047;SDS011;2038;51.728;6.674;2022-07-29T13:52:14;9.13;;;5.33;;
4047;SDS011;2038;51.728;6.674;2022-07-29T13:54:41;9.13;;;6.43;;
4047;SDS011;2038;51.728;6.674;2022-07-29T13:57:08;12.03;;;5.97;;
4047;SDS011;2038;51.728;6.674;2022-07-29T13:59:36;8.20;;;5.53;;
4047;SDS011;2038;51.728;6.674;2022-07-29T14:02:09;6.00;;;5.30;;
4047;SDS011;2038;51.728;6.674;2022-07-29T14:04:37;8.03;;;5.80;;
4047;SDS011;2038;51.728;6.674;2022-07-29T14:07:04;8.23;;;5.80;;
4047;SDS011;2038;51.728;6.674;2022-07-29T14:09:32;11.83;;;5.03;;
4047;SDS011;2038;51.728;6.674;2022-07-29T14:11:58;7.57;;;6.83;;
4047;SDS011;2038;51.728;6.674;2022-07-29T14:14:24;6.73;;;6.00;;
4047;SDS011;2038;51.728;6.674;2022-07-29T14:16:51;9.40;;;7.03;;
4047;SDS011;2038;51.728;6.674;2022-07-29T14:19:17;10.03;;;7.03;;
4047;SDS011;2038;51.728;6.674;2022-07-29T14:21:43;10.13;;;6.27;;
4047;SDS011;2038;51.728;6.674;2022-07-29T14:24:10;6.10;;;5.33;;
4047;SDS011;2038;51.728;6.674;2022-07-29T14:26:36;9.50;;;6.57;;
4047;SDS011;2038;51.728;6.674;2022-07-29T14:29:03;6.30;;;5.47;;
4047;SDS011;2038;51.728;6.674;2022-07-29T14:31:29;7.10;;;4.47;;
4047;SDS011;2038;51.728;6.674;2022-07-29T14:33:55;8.20;;;4.80;;
4047;SDS011;2038;51.728;6.674;2022-07-29T14:36:21;9.63;;;4.70;;
4047;SDS011;2038;51.728;6.674;2022-07-29T14:38:48;4.60;;;4.10;;
4047;SDS011;2038;51.728;6.674;2022-07-29T14:41:14;5.33;;;3.93;;
4047;SDS011;2038;51.728;6.674;2022-07-29T14:43:41;7.10;;;4.00;;
4047;SDS011;2038;51.728;6.674;2022-07-29T14:46:07;6.60;;;4.80;;
4047;SDS011;2038;51.728;6.674;2022-07-29T14:48:33;7.67;;;4.73;;
4047;SDS011;2038;51.728;6.674;2022-07-29T14:51:00;5.80;;;3.90;;
4047;SDS011;2038;51.728;6.674;2022-07-29T14:53:26;4.43;;;4.00;;
4047;SDS011;2038;51.728;6.674;2022-07-29T14:55:52;6.13;;;4.90;;
4047;SDS011;2038;51.728;6.674;2022-07-29T14:58:18;7.90;;;4.53;;
4047;SDS011;2038;51.728;6.674;2022-07-29T15:00:47;8.10;;;4.33;;
4047;SDS011;2038;51.728;6.674;2022-07-29T15:03:13;5.57;;;4.03;;
4047;SDS011;2038;51.728;6.674;2022-07-29T15:05:39;11.40;;;5.00;;
4047;SDS011;2038;51.728;6.674;2022-07-29T15:08:05;5.50;;;4.03;;
4047;SDS011;2038;51.728;6.674;2022-07-29T15:10:33;7.43;;;4.70;;
4047;SDS011;2038;51.728;6.674;2022-07-29T15:12:59;6.70;;;4.83;;
4047;SDS011;2038;51.728;6.674;2022-07-29T15:15:25;4.70;;;4.03;;
4047;SDS011;2038;51.728;6.674;2022-07-29T15:17:52;5.43;;;3.67;;
4047;SDS011;2038;51.728;6.674;2022-07-29T15:20:18;5.63;;;4.40;;
4047;SDS011;2038;51.728;6.674;2022-07-29T15:22:44;7.00;;;4.37;;
4047;SDS011;2038;51.728;6.674;2022-07-29T15:25:11;6.87;;;4.20;;
4047;SDS011;2038;51.728;6.674;2022-07-29T15:27:37;6.23;;;4.53;;
4047;SDS011;2038;51.728;6.674;2022-07-29T15:30:03;5.37;;;4.43;;
4047;SDS011;2038;51.728;6.674;2022-07-29T15:32:30;8.53;;;3.50;;
4047;SDS011;2038;51.728;6.674;2022-07-29T15:34:57;5.30;;;3.30;;
4047;SDS011;2038;51.728;6.674;2022-07-29T15:37:23;5.60;;;3.67;;
4047;SDS011;2038;51.728;6.674;2022-07-29T15:39:49;5.40;;;2.50;;
4047;SDS011;2038;51.728;6.674;2022-07-29T15:42:16;6.23;;;3.10;;
4047;SDS011;2038;51.728;6.674;2022-07-29T15:44:42;6.10;;;3.70;;
4047;SDS011;2038;51.728;6.674;2022-07-29T15:47:08;9.03;;;4.13;;
4047;SDS011;2038;51.728;6.674;2022-07-29T15:49:36;5.43;;;3.83;;
4047;SDS011;2038;51.728;6.674;2022-07-29T15:52:06;4.97;;;3.40;;
4047;SDS011;2038;51.728;6.674;2022-07-29T15:54:35;3.90;;;2.60;;
4047;SDS011;2038;51.728;6.674;2022-07-29T15:57:03;8.97;;;3.33;;
4047;SDS011;2038;51.728;6.674;2022-07-29T15:59:31;5.13;;;2.83;;
4047;SDS011;2038;51.728;6.674;2022-07-29T16:01:58;4.60;;;3.10;;
4047;SDS011;2038;51.728;6.674;2022-07-29T16:04:24;5.00;;;3.07;;
4047;SDS011;2038;51.728;6.674;2022-07-29T16:06:52;3.80;;;2.80;;
4047;SDS011;2038;51.728;6.674;2022-07-29T16:09:18;6.07;;;2.50;;
4047;SDS011;2038;51.728;6.674;2022-07-29T16:11:46;4.20;;;2.67;;
4047;SDS011;2038;51.728;6.674;2022-07-29T16:14:14;5.10;;;3.07;;